Reno, NV

12:13 AM PST on February 27, 2015 (GMT -0800)
Rolling Hills | Change Station
CLOSE
Current Station
Personal Weather Station
Location: Reno, NV
Elevation: 5062 ft
Nearby Weather Stations

Elev 5062 ft 39.39 °N, 119.78 °W | Updated 3 minutes ago

Overcast
Overcast
40.1 °F
Feels Like 40 °F
N
1.6
Wind Variable Wind from NNW

Today
High -- | Low -- °F
--% Chance of Precip.
Yesterday
High -- | Low -- °F
Precip. -- in
6:34 AM 5:49 PM
Waxing Gibbous, 66% visible
Pressure 29.83 in
Visibility 10.0 miles
Clouds Mostly Cloudy 7500 ft
Windchill 40 °F
Dew Point 21 °F
Humidity 46%
Rainfall 0.00 in
Snow Depth Not available.
UV 0 out of 12
Pollen 6.20 out of 12
Air Quality Not available.
Flu Activity Not available.
METAR KRNO 270755Z 02003KT 10SM BKN075 07/M06 A2987 RMK AO2 SLP099 T00671056 401330000 $

More Conditions Fewer Conditions

Pressure 29.83 in
Visibility 10.0 miles
Clouds Mostly Cloudy 7500 ft
Windchill 40 °F
Dew Point 21 °F
Humidity 46%
Rainfall 0.00 in
Snow Depth Not available.
UV 0 out of 12
Pollen 6.20 out of 12
Air Quality Not available.
Flu Activity Not available.
METAR KRNO 270755Z 02003KT 10SM BKN075 07/M06 A2987 RMK AO2 SLP099 T00671056 401330000 $

More Conditions Fewer Conditions

10-Day Weather Forecast

Almanac

Astronomy

Feb. 27, 2015 Rise Set
Actual Time
Civil Twilight
Nautical Twilight
Astronomical Twilight
Moon
Length of Visible Light
Length of Day
Tomorrow will be .
, % of the Moon is Illuminated

Today's Extremes

State Highs State Lows

Community

WunderPhotos

Upload Photos

1,800,649 photos uploaded!

WunderBlogs® & News

Nearby

Air Quality

  Air Quality AQ Index Pollutant
Not available.

Snow Depth

Station Depth Elevation

Earthquake Activity

City Distance Mag. Time & Date
Minimum magnitude displayed is 2.5.

Coastal Water Temperatures

Place Temperature

Nearby Weather Stations